Time;durP1;ratioP1;P1;durP2;ratioP2;P2;SDS_P1;SDS_P2;PMS_P1;PMS_P2;Temp;Humidity;BMP_temperature;BMP_pressure;BME280_temperature;BME280_humidity;BME280_pressure;Samples;Min_cycle;Max_cycle;Signal;HPM_P1;HPM_P2
2022/04/25 00:03:17;;;;;;;1.35;0.85;;;;;;;9.18;80.08;95284.91;10433835;27;97308;-66
2022/04/25 00:08:20;;;;;;;0.83;0.80;;;;;;;9.16;80.39;95284.22;10426443;27;97048;-66
2022/04/25 00:13:22;;;;;;;1.90;0.80;;;;;;;9.10;80.83;95281.28;10431549;27;96930;-66
2022/04/25 00:18:27;;;;;;;0.98;0.80;;;;;;;9.10;80.80;95286.50;10434260;27;96935;-66
2022/04/25 00:23:30;;;;;;;0.80;0.63;;;;;;;9.10;80.88;95283.91;10438757;27;97182;-67
2022/04/25 00:28:33;;;;;;;0.80;0.70;;;;;;;9.07;81.02;95284.25;10442371;27;96986;-67
2022/04/25 00:33:37;;;;;;;0.93;0.60;;;;;;;9.13;81.87;95285.38;10444648;27;96804;-67
2022/04/25 00:38:40;;;;;;;1.10;0.73;;;;;;;9.12;81.22;95273.31;10437513;27;96894;-66
2022/04/25 00:43:43;;;;;;;1.33;0.93;;;;;;;9.21;81.69;95281.94;10443711;27;97200;-66
2022/04/25 00:48:47;;;;;;;1.08;0.65;;;;;;;9.13;81.66;95290.59;10446158;27;97353;-66
2022/04/25 00:53:50;;;;;;;1.47;0.70;;;;;;;9.04;82.08;95281.97;10441527;27;96872;-66
2022/04/25 00:58:53;;;;;;;0.75;0.50;;;;;;;9.01;82.21;95284.88;10445354;27;98258;-66
2022/04/25 01:03:58;;;;;;;2.55;0.60;;;;;;;8.98;82.14;95290.41;10444753;27;96910;-66
2022/04/25 01:09:01;;;;;;;1.07;0.60;;;;;;;8.97;82.20;95306.19;10446453;27;96938;-66
2022/04/25 01:14:14;;;;;;;0.50;0.50;;;;;;;8.91;82.88;95305.06;10444911;27;98041;-66
2022/04/25 01:19:18;;;;;;;1.38;0.60;;;;;;;8.85;82.19;95303.91;10436660;27;96981;-66
2022/04/25 01:29:44;;;;;;;0.77;0.60;;;;;;;8.90;82.26;95296.44;10447445;27;98485;-66
2022/04/25 01:34:47;;;;;;;1.25;0.60;;;;;;;8.91;82.42;95308.47;10442710;27;97809;-66
2022/04/25 01:39:54;;;;;;;0.28;0.28;;;;;;;8.91;82.57;95297.25;10444913;27;97342;-67
2022/04/25 01:44:57;;;;;;;1.70;0.60;;;;;;;8.97;82.01;95291.41;10449219;27;97083;-66
2022/04/25 01:50:00;;;;;;;1.65;0.40;;;;;;;8.99;81.88;95294.66;10439376;27;98701;-66
2022/04/25 01:55:05;;;;;;;2.03;0.32;;;;;;;8.99;81.76;95292.06;10442864;27;97759;-66
2022/04/25 02:00:08;;;;;;;;;;;;;;;8.97;81.56;95288.78;10446969;27;96829;-67
2022/04/25 02:05:11;;;;;;;0.30;0.30;;;;;;;8.98;81.67;95287.81;10427914;27;96773;-66
2022/04/25 02:10:16;;;;;;;0.30;0.30;;;;;;;9.06;81.49;95279.19;10446813;27;96788;-66
2022/04/25 02:15:18;;;;;;;0.57;0.50;;;;;;;9.10;81.10;95283.09;10438272;27;96950;-66
2022/04/25 02:20:21;;;;;;;0.30;0.30;;;;;;;9.14;81.60;95291.41;10435113;27;96858;-67
2022/04/25 02:25:26;;;;;;;0.32;0.30;;;;;;;9.16;81.52;95279.84;10436380;27;100059;-66
2022/04/25 02:30:29;;;;;;;0.93;0.30;;;;;;;9.08;81.88;95287.66;10442843;27;99044;-66
2022/04/25 02:35:32;;;;;;;0.88;0.35;;;;;;;8.99;82.46;95289.44;10438842;27;97261;-66
2022/04/25 02:40:36;;;;;;;0.30;0.30;;;;;;;8.94;82.16;95296.94;10441065;27;98712;-66
2022/04/25 02:45:39;;;;;;;0.30;0.17;;;;;;;8.91;82.71;95299.84;10434782;27;97877;-66
2022/04/25 02:50:42;;;;;;;1.45;0.30;;;;;;;8.90;82.60;95291.22;10437204;27;102981;-66
2022/04/25 02:55:47;;;;;;;0.30;0.20;;;;;;;8.89;82.47;95289.59;10435989;27;96918;-66
2022/04/25 03:00:51;;;;;;;0.22;0.20;;;;;;;8.86;82.31;95292.53;10405460;27;214823;-66
2022/04/25 03:05:55;;;;;;;0.55;0.47;;;;;;;8.85;82.35;95298.69;10445701;27;98895;-66
2022/04/25 03:10:59;;;;;;;0.47;0.35;;;;;;;8.86;82.60;95294.31;10434800;27;97344;-66
2022/04/25 03:16:02;;;;;;;1.07;0.40;;;;;;;8.84;82.87;95293.66;10432482;27;96930;-66
2022/04/25 03:21:06;;;;;;;0.93;0.40;;;;;;;8.85;82.64;95287.47;10442187;27;100116;-66
2022/04/25 03:26:10;;;;;;;0.90;0.50;;;;;;;8.90;82.63;95296.44;10436636;27;97160;-66
2022/04/25 03:31:13;;;;;;;0.57;0.43;;;;;;;8.85;82.93;95297.91;10433825;27;99000;-66
2022/04/25 03:36:16;;;;;;;1.77;0.50;;;;;;;8.86;82.90;95302.13;10435395;27;98462;-66
2022/04/25 03:41:21;;;;;;;1.38;0.43;;;;;;;8.82;83.12;95300.81;10426642;27;97064;-66
2022/04/25 03:46:26;;;;;;;0.73;0.20;;;;;;;8.76;83.32;95294.47;10437101;27;98430;-66
2022/04/25 03:51:29;;;;;;;0.70;0.55;;;;;;;8.76;83.31;95297.06;10439770;27;100375;-66
2022/04/25 04:01:54;;;;;;;0.68;0.30;;;;;;;8.75;83.61;95302.44;10434822;27;98507;-66
2022/04/25 04:06:58;;;;;;;0.52;0.30;;;;;;;8.75;83.45;95299.81;10429947;27;97092;-66
2022/04/25 04:12:02;;;;;;;0.20;0.20;;;;;;;8.69;83.19;95302.09;10434476;27;100308;-66
2022/04/25 04:17:07;;;;;;;0.30;0.30;;;;;;;8.67;83.04;95305.81;10438742;27;99261;-66
2022/04/25 04:22:10;;;;;;;1.55;0.25;;;;;;;8.65;83.66;95308.56;10428505;27;100016;-66
2022/04/25 04:27:14;;;;;;;1.73;0.30;;;;;;;8.72;83.46;95325.22;10438694;27;97199;-66
2022/04/25 04:32:17;;;;;;;0.60;0.47;;;;;;;8.73;83.44;95310.41;10436015;27;98395;-66
2022/04/25 04:37:20;;;;;;;0.93;0.32;;;;;;;8.75;83.46;95318.06;10435428;27;98425;-66
2022/04/25 04:42:24;;;;;;;1.95;0.45;;;;;;;8.76;83.72;95324.88;10440600;27;96977;-66
2022/04/25 04:47:31;;;;;;;1.83;0.30;;;;;;;8.70;83.69;95326.34;10441092;27;96921;-66
2022/04/25 04:52:34;;;;;;;0.50;0.40;;;;;;;8.73;83.33;95333.84;10434270;27;97081;-66
2022/04/25 04:57:38;;;;;;;0.88;0.45;;;;;;;8.80;83.40;95341.84;10430673;27;96773;-66
2022/04/25 05:02:42;;;;;;;0.57;0.20;;;;;;;8.82;82.96;95337.28;10436736;27;97926;-66
2022/04/25 05:07:45;;;;;;;0.57;0.30;;;;;;;8.84;83.10;95348.34;10435478;27;100306;-66
2022/04/25 05:12:50;;;;;;;0.35;0.20;;;;;;;8.84;82.95;95349.16;10432967;27;98670;-66
2022/04/25 05:17:53;;;;;;;0.43;0.20;;;;;;;8.87;83.17;95351.44;10426669;27;97939;-66
2022/04/25 05:22:57;;;;;;;0.17;0.15;;;;;;;8.92;83.31;95350.97;10427336;27;96923;-66
2022/04/25 05:28:02;;;;;;;0.20;0.15;;;;;;;9.00;83.08;95350.16;10427648;27;98768;-66
2022/04/25 05:33:05;;;;;;;0.98;0.40;;;;;;;9.07;82.58;95354.59;10428274;27;99003;-66
2022/04/25 05:38:10;;;;;;;0.20;0.20;;;;;;;9.13;82.79;95353.13;10428737;27;98526;-66
2022/04/25 05:43:14;;;;;;;1.20;0.30;;;;;;;9.14;82.82;95364.34;10430675;27;96883;-66
2022/04/25 05:53:38;;;;;;;0.30;0.30;;;;;;;9.11;83.02;95365.50;10431158;27;102327;-66
2022/04/25 05:58:42;;;;;;;0.57;0.40;;;;;;;9.17;82.98;95369.25;10448583;27;98369;-66
2022/04/25 06:03:46;;;;;;;0.80;0.40;;;;;;;9.18;82.99;95363.88;10442145;27;97552;-66
2022/04/25 06:08:49;;;;;;;2.15;0.38;;;;;;;9.21;83.14;95367.94;10441234;27;98708;-66
2022/04/25 06:13:57;;;;;;;0.30;0.25;;;;;;;9.13;82.79;95379.19;10435413;27;97737;-66
2022/04/25 06:19:01;;;;;;;0.30;0.30;;;;;;;9.18;83.74;95382.13;10448263;27;97017;-66
2022/04/25 06:24:04;;;;;;;0.47;0.40;;;;;;;9.31;83.31;95381.66;10442816;27;97429;-66
2022/04/25 06:29:09;;;;;;;1.17;0.28;;;;;;;9.50;83.20;95379.75;10429383;27;96987;-66
2022/04/25 06:34:12;;;;;;;0.82;0.63;;;;;;;9.66;82.37;95375.38;10443940;27;98820;-66
2022/04/25 06:39:15;;;;;;;2.88;0.55;;;;;;;9.75;82.61;95384.00;10448776;27;96760;-66
2022/04/25 06:44:19;;;;;;;1.10;0.50;;;;;;;9.83;82.35;95386.59;10432447;27;96898;-66
2022/04/25 06:49:23;;;;;;;2.42;0.60;;;;;;;9.80;81.93;95389.53;10427765;27;96870;-66
2022/04/25 06:54:28;;;;;;;0.63;0.47;;;;;;;9.79;82.14;95390.50;10424090;27;97149;-66
2022/04/25 06:59:32;;;;;;;1.73;1.00;;;;;;;9.82;82.18;95395.41;10426625;27;96781;-66
2022/04/25 07:04:35;;;;;;;;;;;;;;;9.85;82.28;95392.47;10443633;27;96760;-66
2022/04/25 07:09:38;;;;;;;1.25;0.73;;;;;;;9.90;82.21;95385.94;10424720;27;97225;-66
2022/04/25 07:14:43;;;;;;;2.10;0.90;;;;;;;9.97;81.85;95386.91;10427473;27;97748;-66
2022/04/25 07:19:45;;;;;;;1.87;1.20;;;;;;;10.11;81.85;95393.25;10429721;27;97109;-66
2022/04/25 07:30:14;;;;;;;1.27;1.00;;;;;;;10.08;81.68;95404.84;10424098;27;98278;-65
2022/04/25 07:35:18;;;;;;;2.08;1.27;;;;;;;10.30;81.92;95402.53;10426715;27;96867;-66
2022/04/25 07:40:21;;;;;;;1.67;1.30;;;;;;;10.53;81.69;95402.63;10427591;27;97021;-66
2022/04/25 07:45:25;;;;;;;2.15;1.40;;;;;;;10.70;81.61;95395.56;10422247;27;97011;-66
2022/04/25 07:50:29;;;;;;;3.03;2.10;;;;;;;10.78;80.99;95400.75;10424755;27;96929;-66
2022/04/25 07:55:32;;;;;;;4.32;2.50;;;;;;;10.85;80.60;95404.31;10426617;27;97134;-66
2022/04/25 08:00:40;;;;;;;2.92;2.45;;;;;;;11.00;80.46;95407.03;10424144;27;96817;-66
2022/04/25 08:05:43;;;;;;;2.80;2.42;;;;;;;11.04;79.71;95412.72;10425401;27;97146;-66
2022/04/25 08:10:46;;;;;;;2.72;2.53;;;;;;;10.87;80.33;95419.81;10426506;27;96899;-66
2022/04/25 08:21:11;;;;;;;5.03;2.60;;;;;;;10.69;80.08;95425.28;10422008;27;96711;-66
2022/04/25 08:26:13;;;;;;;3.72;2.63;;;;;;;10.85;79.97;95437.47;10426908;27;99961;-66
2022/04/25 08:31:18;;;;;;;2.85;2.55;;;;;;;10.95;79.96;95443.31;10425131;27;96837;-66
2022/04/25 08:36:22;;;;;;;2.53;2.30;;;;;;;10.98;79.45;95450.78;10420660;27;97060;-66
2022/04/25 08:41:30;;;;;;;3.60;2.55;;;;;;;10.99;80.01;95465.50;10426011;27;96906;-66
2022/04/25 08:46:36;;;;;;;3.25;2.90;;;;;;;10.98;79.76;95463.84;10424643;27;96742;-66
2022/04/25 08:51:40;;;;;;;3.92;2.72;;;;;;;10.87;79.67;95461.63;10420731;27;97013;-66
2022/04/25 08:56:44;;;;;;;3.53;2.78;;;;;;;10.84;79.84;95473.22;10424296;27;96960;-66
2022/04/25 09:01:48;;;;;;;4.03;2.97;;;;;;;10.77;79.96;95482.72;10424923;27;97025;-66
2022/04/25 09:06:52;;;;;;;3.45;3.10;;;;;;;10.56;80.47;95489.28;10421514;27;96848;-67
2022/04/25 09:12:10;;;;;;;4.85;3.60;;;;;;;10.54;80.30;95493.84;10422493;27;96822;-67
2022/04/25 09:17:15;;;;;;;4.40;3.58;;;;;;;10.56;80.13;95498.91;10428168;27;96822;-67
2022/04/25 09:22:32;;;;;;;6.23;4.30;;;;;;;10.59;80.47;95506.44;10424539;27;97069;-66
2022/04/25 09:27:35;;;;;;;5.20;3.58;;;;;;;10.56;80.32;95512.78;10420823;27;96783;-67
2022/04/25 09:32:40;;;;;;;6.43;3.40;;;;;;;10.49;80.14;95521.47;10430057;27;99842;-67
2022/04/25 09:37:45;;;;;;;5.13;3.90;;;;;;;10.47;80.20;95526.84;10431227;27;96979;-67
2022/04/25 09:42:48;;;;;;;;;;;;;;;10.56;79.78;95531.06;10427628;27;96767;-67
2022/04/25 09:47:56;;;;;;;4.95;3.50;;;;;;;10.67;79.62;95531.72;10430234;27;96839;-67
2022/04/25 09:53:02;;;;;;;4.60;3.60;;;;;;;10.76;79.68;95535.97;10431476;27;97050;-67
2022/04/25 09:58:23;;;;;;;4.40;3.28;;;;;;;10.82;79.63;95540.50;10430866;27;97057;-67
2022/04/25 10:03:35;;;;;;;3.33;3.03;;;;;;;11.07;80.02;95556.13;10424171;27;96939;-67
2022/04/25 10:08:40;;;;;;;4.18;3.47;;;;;;;11.30;79.61;95541.34;10430355;27;97424;-67
2022/04/25 10:13:43;;;;;;;3.67;3.27;;;;;;;11.44;78.83;95545.09;10429273;27;98552;-67
2022/04/25 10:18:48;;;;;;;4.90;3.67;;;;;;;11.52;79.29;95546.88;10425737;27;96997;-67
2022/04/25 10:23:51;;;;;;;4.63;3.75;;;;;;;11.66;78.77;95554.00;10427503;27;96979;-67
2022/04/25 10:28:57;;;;;;;4.35;3.80;;;;;;;11.68;78.22;95552.00;10429874;27;97241;-67
2022/04/25 10:34:02;;;;;;;5.18;3.45;;;;;;;11.84;78.13;95558.16;10428791;27;96968;-67
2022/04/25 10:39:12;;;;;;;3.83;3.42;;;;;;;12.07;78.29;95551.13;10425738;27;97004;-67
2022/04/25 10:44:59;;;;;;;3.55;2.90;;;;;;;12.49;76.31;95552.47;10428243;27;96875;-67
2022/04/25 10:50:09;;;;;;;3.42;3.10;;;;;;;12.81;76.36;95558.41;10428790;27;96964;-67
2022/04/25 10:55:14;;;;;;;3.72;3.30;;;;;;;12.92;76.87;95566.84;10427850;27;96802;-67
2022/04/25 11:00:45;;;;;;;4.38;3.17;;;;;;;13.01;77.49;95568.41;10411279;27;96813;-67
2022/04/25 11:05:51;;;;;;;3.20;2.90;;;;;;;13.11;76.78;95581.25;10398069;28;96759;-67
2022/04/25 11:11:01;;;;;;;3.65;2.70;;;;;;;13.05;75.41;95580.19;10386153;28;97270;-67
2022/04/25 11:16:18;;;;;;;3.00;2.70;;;;;;;13.08;75.22;95581.59;10385498;28;97015;-67
2022/04/25 11:21:32;;;;;;;3.08;2.70;;;;;;;13.16;74.96;95584.97;10379559;28;97025;-67
2022/04/25 11:26:55;;;;;;;3.95;3.03;;;;;;;12.93;74.91;95584.22;10385402;28;96749;-67
2022/04/25 11:32:35;;;;;;;3.63;2.90;;;;;;;12.71;75.97;95578.81;10385510;28;96731;-67
2022/04/25 11:37:39;;;;;;;4.95;3.10;;;;;;;12.92;76.15;95577.34;10298604;28;97242;-67
2022/04/25 11:42:42;;;;;;;4.97;3.80;;;;;;;12.93;76.74;95573.75;10293802;28;97108;-67
2022/04/25 11:47:45;;;;;;;4.10;3.45;;;;;;;12.87;75.44;95573.44;10292647;28;99628;-67
2022/04/25 11:52:52;;;;;;;3.80;2.95;;;;;;;12.91;74.32;95575.69;10297017;28;96964;-68
2022/04/25 11:57:55;;;;;;;3.90;2.80;;;;;;;13.10;75.37;95587.47;10294980;28;96830;-67
2022/04/25 12:02:58;;;;;;;2.78;2.38;;;;;;;13.19;75.45;95589.84;10263130;28;96953;-67
2022/04/25 12:18:51;;;;;;;2.58;2.00;;;;;;;13.46;72.34;95590.22;10339369;28;96944;-67
2022/04/25 12:23:56;;;;;;;3.30;2.53;;;;;;;13.46;72.10;95598.09;10354238;28;97604;-67
2022/04/25 12:29:01;;;;;;;3.50;2.60;;;;;;;13.41;71.83;95597.81;10342796;28;97553;-68
2022/04/25 12:34:07;;;;;;;3.60;2.70;;;;;;;13.13;72.96;95598.44;10343250;28;98389;-67
2022/04/25 12:39:13;;;;;;;5.13;3.03;;;;;;;12.85;72.55;95606.84;10337901;28;97197;-67
2022/04/25 12:44:17;;;;;;;3.67;3.13;;;;;;;12.55;73.41;95603.34;10342023;28;96923;-67
2022/04/25 12:49:22;;;;;;;4.55;3.53;;;;;;;12.29;74.79;95608.94;10342340;28;97053;-67
2022/04/25 12:54:30;;;;;;;6.30;3.85;;;;;;;12.19;74.42;95610.94;10337367;28;96982;-68
2022/04/25 12:59:34;;;;;;;5.40;3.88;;;;;;;11.99;75.11;95608.78;10350953;28;97036;-67
2022/04/25 13:04:52;;;;;;;6.20;4.43;;;;;;;11.97;76.67;95610.75;10431003;27;96695;-68
2022/04/25 13:09:58;;;;;;;5.18;4.03;;;;;;;12.01;76.59;95613.84;10431044;27;97156;-68
2022/04/25 13:15:02;;;;;;;4.55;4.15;;;;;;;12.08;76.08;95607.75;10429366;27;97782;-67
2022/04/25 13:20:12;;;;;;;4.32;3.92;;;;;;;12.10;76.71;95618.03;10431497;27;96885;-68
2022/04/25 13:25:22;;;;;;;4.25;3.65;;;;;;;12.34;76.10;95621.50;10431596;27;96745;-68
2022/04/25 13:30:26;;;;;;;4.53;3.80;;;;;;;12.68;75.90;95623.69;10425660;27;97036;-68
2022/04/25 13:35:29;;;;;;;3.42;3.13;;;;;;;12.85;75.06;95630.44;10431562;27;96792;-68
2022/04/25 13:40:33;;;;;;;5.45;3.13;;;;;;;12.88;73.90;95614.38;10431617;27;96724;-68
2022/04/25 13:45:36;;;;;;;4.50;3.27;;;;;;;13.09;73.42;95610.28;10426539;27;97802;-68
2022/04/25 13:50:39;;;;;;;3.85;2.70;;;;;;;13.04;73.11;95607.38;10430935;27;97094;-67
2022/04/25 13:55:45;;;;;;;3.88;3.05;;;;;;;12.85;74.25;95612.09;10430707;27;96835;-67
2022/04/25 14:00:47;;;;;;;4.10;2.50;;;;;;;12.98;73.74;95608.91;10426208;27;96918;-68
2022/04/25 14:05:50;;;;;;;2.83;2.30;;;;;;;13.31;72.78;95608.59;10428943;27;99454;-68
2022/04/25 14:10:55;;;;;;;3.08;2.47;;;;;;;13.59;70.83;95610.59;10430281;27;99607;-68
2022/04/25 14:15:58;;;;;;;4.97;2.63;;;;;;;13.81;70.28;95603.56;10426929;27;97150;-68
2022/04/25 14:21:01;;;;;;;3.65;2.47;;;;;;;13.75;71.92;95599.06;10427036;27;96799;-68
2022/04/25 14:26:09;;;;;;;4.97;3.15;;;;;;;13.75;71.74;95596.44;10430713;27;96940;-68
2022/04/25 14:31:12;;;;;;;2.60;2.33;;;;;;;13.63;71.37;95599.53;10430923;27;96776;-68
2022/04/25 14:36:15;;;;;;;4.05;2.85;;;;;;;13.60;72.27;95599.91;10424302;27;97151;-68
2022/04/25 14:41:19;;;;;;;3.55;2.60;;;;;;;13.49;71.22;95602.16;10427397;27;97114;-68
2022/04/25 14:46:22;;;;;;;4.20;2.42;;;;;;;13.24;69.90;95602.44;10429193;27;96874;-68
2022/04/25 14:56:46;;;;;;;2.83;2.53;;;;;;;12.78;70.07;95612.97;10440530;27;97019;-68
2022/04/25 15:01:51;;;;;;;3.93;2.43;;;;;;;12.79;70.21;95620.69;10428511;27;96773;-68
2022/04/25 15:06:55;;;;;;;4.15;2.38;;;;;;;12.84;70.38;95620.97;10427421;27;97131;-68
2022/04/25 15:11:59;;;;;;;3.13;2.83;;;;;;;12.87;69.76;95612.75;10426045;27;97049;-68
2022/04/25 15:17:02;;;;;;;3.33;2.67;;;;;;;12.89;70.42;95612.56;10428295;27;97387;-68
2022/04/25 15:22:06;;;;;;;2.67;2.17;;;;;;;12.95;71.52;95616.31;10426528;27;96925;-68
2022/04/25 15:27:10;;;;;;;2.40;2.17;;;;;;;13.04;71.65;95612.63;10422968;27;96766;-68
2022/04/25 15:32:14;;;;;;;1.85;1.33;;;;;;;13.10;69.99;95616.31;10428250;27;96842;-68
2022/04/25 15:37:17;;;;;;;1.92;1.70;;;;;;;13.21;69.91;95621.97;10427705;27;96790;-68
2022/04/25 15:42:28;;;;;;;2.40;2.10;;;;;;;13.23;69.64;95614.72;10421612;27;96951;-68
2022/04/25 15:47:31;;;;;;;2.58;2.05;;;;;;;13.34;70.64;95623.13;10427616;27;96900;-68
2022/04/25 15:52:33;;;;;;;2.60;2.13;;;;;;;13.27;68.18;95617.00;10426938;27;96718;-68
2022/04/25 16:02:57;;;;;;;2.95;2.40;;;;;;;13.11;67.86;95617.97;10433343;27;97842;-68
2022/04/25 16:08:01;;;;;;;2.22;2.00;;;;;;;12.93;69.58;95620.94;10436394;27;98067;-68
2022/04/25 16:13:05;;;;;;;3.90;2.45;;;;;;;12.98;67.94;95615.97;10436830;27;96938;-68
2022/04/25 16:18:08;;;;;;;3.00;2.50;;;;;;;13.20;69.70;95611.63;10452775;27;96915;-67
2022/04/25 16:23:13;;;;;;;2.95;2.58;;;;;;;14.07;68.18;95612.75;10447457;27;97131;-67
2022/04/25 16:28:18;;;;;;;4.45;2.83;;;;;;;15.20;66.73;95618.28;10449206;27;97029;-69
2022/04/25 16:33:21;;;;;;;3.30;2.60;;;;;;;15.90;64.62;95623.59;10444514;27;98003;-68
2022/04/25 16:38:24;;;;;;;3.40;3.05;;;;;;;15.79;64.56;95623.13;10438322;27;97783;-68
2022/04/25 16:43:29;;;;;;;4.20;3.50;;;;;;;15.41;62.73;95626.13;10451952;27;97191;-68
2022/04/25 16:48:32;;;;;;;;;;;;;;;15.32;63.70;95627.25;10446582;27;96806;-68
2022/04/25 16:53:35;;;;;;;4.57;3.45;;;;;;;15.40;62.94;95624.50;10445809;27;97021;-68
2022/04/25 16:58:39;;;;;;;3.90;3.50;;;;;;;16.31;63.17;95625.34;10451633;27;96796;-68
2022/04/25 17:03:42;;;;;;;4.80;3.60;;;;;;;16.40;60.53;95629.44;10449082;27;98527;-68
2022/04/25 17:08:45;;;;;;;4.53;3.58;;;;;;;16.33;59.94;95618.03;10452867;27;96719;-68
2022/04/25 17:13:50;;;;;;;4.10;3.53;;;;;;;16.51;59.71;95620.94;10449042;27;98180;-68
2022/04/25 17:18:52;;;;;;;3.78;3.47;;;;;;;16.52;60.62;95617.28;10451701;27;96931;-67
2022/04/25 17:23:56;;;;;;;4.93;3.85;;;;;;;16.20;60.24;95617.00;10443040;27;97063;-68
2022/04/25 17:29:01;;;;;;;4.78;3.78;;;;;;;15.68;60.95;95621.03;10432748;27;98417;-69
